Time;durP1;ratioP1;P1;durP2;ratioP2;P2;SDS_P1;SDS_P2;PMS_P1;PMS_P2;Temp;Humidity;BMP_temperature;BMP_pressure;BME280_temperature;BME280_humidity;BME280_pressure;Samples;Min_cycle;Max_cycle;Signal;HPM_P1;HPM_P2
2023/06/21 21:11:02;;;;;;;;;2.00;2.00;;;;;25.80;45.28;101366.41;3241788;23;46254;-89
2023/06/21 21:13:27;;;;;;;;;3.00;3.00;;;;;25.80;46.04;101361.94;4810288;29;47263;-90
2023/06/21 21:15:52;;;;;;;;;2.33;2.33;;;;;25.78;45.54;101366.56;4815870;29;45730;-90
2023/06/21 21:18:18;;;;;;;;;2.33;2.33;;;;;25.76;45.69;101365.88;4840979;29;45463;-90
2023/06/21 21:20:43;;;;;;;;;6.67;3.00;;;;;25.73;46.15;101366.16;4841310;29;45549;-91
2023/06/21 21:23:10;;;;;;;;;2.00;2.00;;;;;25.71;46.02;101365.44;4833459;29;47003;-90
2023/06/21 21:25:37;;;;;;;;;3.33;3.33;;;;;25.68;45.82;101365.75;4822621;29;45814;-91
2023/06/21 21:28:04;;;;;;;;;5.00;3.00;;;;;25.60;46.23;101367.25;4823745;29;45479;-90
2023/06/21 21:30:29;;;;;;;;;2.33;2.33;;;;;25.58;46.29;101371.91;4816566;29;45655;-90
2023/06/21 21:32:57;;;;;;;;;3.00;2.00;;;;;25.57;46.04;101361.38;4840053;29;47014;-90
2023/06/21 21:35:23;;;;;;;;;2.00;2.00;;;;;25.57;45.96;101364.88;4842125;29;45382;-90
2023/06/21 21:37:48;;;;;;;;;2.00;2.00;;;;;25.57;46.37;101372.88;4840967;29;45401;-90
2023/06/21 21:40:14;;;;;;;;;5.67;4.00;;;;;25.56;45.96;101371.19;4840817;29;45619;-89
2023/06/21 21:42:39;;;;;;;;;3.67;2.00;;;;;25.55;46.16;101376.66;4840657;29;47231;-91
2023/06/21 21:45:05;;;;;;;;;3.00;3.00;;;;;25.52;46.50;101382.22;4836181;29;45852;-92
2023/06/21 21:47:31;;;;;;;;;2.00;2.00;;;;;25.47;45.81;101386.13;4788473;29;45645;-90
2023/06/21 21:49:59;;;;;;;;;1.00;1.00;;;;;25.40;46.20;101398.31;4820577;29;45400;-89
2023/06/21 21:52:25;;;;;;;;;3.00;3.00;;;;;25.38;45.94;101402.97;4840301;29;46636;-91
2023/06/21 21:54:50;;;;;;;;;4.00;3.00;;;;;25.34;46.89;101410.38;4843673;29;45450;-90
2023/06/21 21:57:16;;;;;;;;;3.67;3.67;;;;;25.31;46.59;101410.66;4843449;29;45557;-91
2023/06/21 21:59:41;;;;;;;;;2.00;2.00;;;;;25.32;46.31;101422.16;4843929;29;45524;-90
2023/06/21 22:02:07;;;;;;;;;3.67;2.00;;;;;25.34;46.69;101421.03;4829142;29;48028;-90
2023/06/21 22:04:32;;;;;;;;;2.33;2.33;;;;;25.29;46.49;101417.09;4825074;29;45376;-90
2023/06/21 22:06:57;;;;;;;;;2.67;1.33;;;;;25.24;46.47;101421.97;4826304;29;45608;-90
2023/06/21 22:09:23;;;;;;;;;3.00;3.00;;;;;25.13;46.81;101420.28;4825229;29;45857;-91
2023/06/21 22:11:49;;;;;;;;;2.33;2.33;;;;;25.10;46.84;101429.38;4811916;29;46753;-91
2023/06/21 22:14:15;;;;;;;;;5.00;2.00;;;;;25.04;46.79;101424.59;4807220;29;45624;-90
2023/06/21 22:16:40;;;;;;;;;3.33;2.67;;;;;24.97;47.07;101428.72;4843652;29;45628;-90
2023/06/21 22:19:05;;;;;;;;;1.33;1.33;;;;;24.99;46.92;101432.13;4845266;29;45517;-91
2023/06/21 22:21:33;;;;;;;;;2.00;2.00;;;;;25.01;46.99;101431.03;4844763;29;46343;-90
2023/06/21 22:23:59;;;;;;;;;1.33;1.33;;;;;24.99;47.02;101413.50;4843357;29;45479;-91
2023/06/21 22:26:25;;;;;;;;;4.33;2.67;;;;;24.99;47.21;101427.63;4843717;29;45426;-90
2023/06/21 22:28:50;;;;;;;;;6.00;3.33;;;;;25.00;47.21;101428.47;4826241;29;46417;-90
2023/06/21 22:31:15;;;;;;;;;4.00;2.00;;;;;25.01;47.28;101428.34;4826395;29;45922;-91
2023/06/21 22:33:41;;;;;;;;;2.00;2.00;;;;;24.95;47.36;101426.22;4843284;29;45440;-90
2023/06/21 22:36:07;;;;;;;;;2.00;1.00;;;;;24.94;47.47;101432.50;4844889;29;45673;-90
2023/06/21 22:38:35;;;;;;;;;1.33;1.33;;;;;24.91;47.51;101430.94;4828140;29;45647;-91
2023/06/21 22:41:01;;;;;;;;;3.33;2.33;;;;;24.90;47.75;101433.78;4843296;29;45606;-91
2023/06/21 22:43:26;;;;;;;;;1.33;1.33;;;;;24.88;47.33;101435.69;4841438;29;45679;-91
2023/06/21 22:45:52;;;;;;;;;2.00;2.00;;;;;24.84;47.06;101445.78;4832589;29;45680;-91
2023/06/21 22:48:20;;;;;;;;;4.00;3.00;;;;;24.84;47.33;101439.63;4809773;29;45613;-91
2023/06/21 22:50:46;;;;;;;;;3.00;3.00;;;;;24.85;47.67;101449.28;4824829;29;46803;-89
2023/06/21 22:53:12;;;;;;;;;0.33;0.33;;;;;24.85;47.54;101442.13;4825992;29;45742;-91
2023/06/21 22:55:38;;;;;;;;;2.33;2.33;;;;;24.85;47.01;101442.13;4825990;29;45470;-90
2023/06/21 22:58:04;;;;;;;;;3.00;3.00;;;;;24.85;47.54;101441.31;4830155;29;45319;-92
2023/06/21 23:00:29;;;;;;;;;3.00;2.00;;;;;24.84;47.31;101443.13;4844123;29;45708;-90
2023/06/21 23:05:46;;;;;;;;;2.00;2.00;;;;;24.76;47.64;101418.97;4896100;23;45532;-91
2023/06/21 23:08:11;;;;;;;;;4.33;3.67;;;;;24.72;47.52;101418.38;4848056;29;45624;-92
2023/06/21 23:10:37;;;;;;;;;2.67;2.00;;;;;24.67;47.52;101417.94;4846675;29;45626;-92
2023/06/21 23:13:06;;;;;;;;;2.00;2.00;;;;;24.64;47.85;101411.06;4862121;29;45716;-92
2023/06/21 23:15:32;;;;;;;;;3.33;2.00;;;;;24.65;47.70;101404.75;4846653;29;45300;-91
2023/06/21 23:18:00;;;;;;;;;1.67;1.67;;;;;24.66;47.85;101403.78;4851864;29;45476;-91
